Jordan Valley, OR (97910)

7:21 AM MST on February 06, 2016 (GMT -0700)
Nampa | | Change Station
CLOSE
Current Station
Airport
Location: Nampa,
Elevation: 2536 ft
Nearby Weather Stations

Elev 2536 ft 43.58 °N, 116.52 °W | Updated 6 minutes ago

Mostly Cloudy
Mostly Cloudy
32 °F
Feels Like 24 °F
N
9
Wind Variable Wind from SE

Today
High -- | Low -- °F
--% Chance of Precip.
Yesterday
High -- | Low -- °F
Precip. -- in
Pressure 30.43 in
Visibility 10.0 miles
Clouds Overcast 6000 ft
Windchill 24 °F
Dew Point 32 °F
Humidity 100%
Rainfall 0.00 in
Snow Depth Not available.
7:57 AM 6:07 PM
Waning Crescent, 5% visible
METAR KMAN 061415Z AUTO 14008KT 10SM OVC060 00/00 A3043 RMK A01
Pressure 30.43 in
Visibility 10.0 miles
Clouds Overcast 6000 ft
Windchill 24 °F
Dew Point 32 °F
Humidity 100%
Rainfall 0.00 in
Snow Depth Not available.
7:57 AM 6:07 PM
Waning Crescent, 5% visible
METAR KMAN 061415Z AUTO 14008KT 10SM OVC060 00/00 A3043 RMK A01

10-Day Weather Forecast

Almanac

Astronomy

Feb. 06, 2016 Rise Set
Actual Time
Civil Twilight
Nautical Twilight
Astronomical Twilight
Moon
Length of Visible Light
Length of Day
Tomorrow will be .
, % of the Moon is Illuminated

Today's Extremes

State Highs State Lows

Community

WunderPhotos

Upload Photos

1,890,981 photos uploaded!

WunderBlog® & News

Nearby

Air Quality

  Air Quality AQ Index Pollutant
Not available.

Snow Depth

Station Depth Elevation

Earthquake Activity

City Distance Mag. Time & Date
Minimum magnitude displayed is 2.5.

Coastal Water Temperatures

Place Temperature

Stations

Nearby Weather Stations

Station Location Temp. Windchill Dew Point Humidity Wind Precip. Elev Updated Type
                   

Watches & Warnings

There are currently no watches in effect.